PWSweather.com
Personal Weather Stations
Station Observations
SANDHURSTWX
SandhurstGB

SandhurstGB

Lat: 51.3522, Lon: -0.7739

Elevation: 272.3

Station Type: Davis VP2

www.sandhurstweather.org.uk

High Low Average
Temperature 67.2°F19.6°C 57.4°F14.1°C 60.9°F16.1°C
Dew Point 61.9°F16.6°C 56.3°F13.5°C 58.3°F14.6°C
Winds 6.9 mph 11.1 kmh Calm Calm 4.0 mph SW6.4 kmh SW
Wind Gusts 12.7 mph20.4 kmh 1.2 mph1.9 kmh 6.0 mph9.7 kmh
Humidity 97% 77% 91%
Pressure 29.64 in1003.7 mb 29.45 in997.3 mb -
Precipitation 0.14 in3.6 mm - -
Hour Temp Dew Point Humidity Winds Wind Gusts Pressure Precip Precip Rate Daily Precip Total
12:00 AM 57.4°F14.1°C 56.3°F13.5°C 96% 3.5 mph SW5.6 kmh SW 3.5 mph5.6 kmh 29.54 in1000.3 mb - 0.00 in0.0 mm 0.00 in0.0 mm
01:00 AM 57.7°F14.3°C 56.6°F13.7°C 96% 5.8 mph S9.3 kmh S 8.1 mph13.0 kmh 29.53 in1000.0 mb - 0.00 in0.0 mm 0.00 in0.0 mm
02:00 AM 58.0°F14.4°C 56.9°F13.8°C 96% 5.8 mph S9.3 kmh S 12.7 mph20.4 kmh 29.51 in999.3 mb - 0.00 in0.0 mm 0.00 in0.0 mm
03:00 AM 58.1°F14.5°C 57.0°F13.9°C 96% 5.8 mph SSE9.3 kmh SSE 12.7 mph20.4 kmh 29.48 in998.3 mb - 0.02 in0.5 mm 0.02 in0.5 mm
04:00 AM 58.3°F14.6°C 57.5°F14.2°C 97% 6.9 mph SSE11.1 kmh SSE 10.4 mph16.7 kmh 29.46 in997.6 mb - 0.01 in0.3 mm 0.02 in0.5 mm
05:00 AM 58.8°F14.9°C 58.0°F14.4°C 97% 3.5 mph SSW5.6 kmh SSW 3.5 mph5.6 kmh 29.45 in997.3 mb - 0.09 in2.3 mm 0.11 in2.8 mm
06:00 AM 58.9°F14.9°C 58.1°F14.5°C 97% 3.5 mph S5.6 kmh S 4.6 mph7.4 kmh 29.45 in997.3 mb - 0.00 in0.0 mm 0.11 in2.8 mm
07:00 AM 59.1°F15.1°C 58.2°F14.6°C 97% 3.5 mph SW5.6 kmh SW 8.1 mph13.0 kmh 29.46 in997.6 mb - 0.01 in0.3 mm 0.12 in3.0 mm
08:00 AM 59.4°F15.2°C 58.5°F14.7°C 97% 1.2 mph SW1.9 kmh SW 3.5 mph5.6 kmh 29.48 in998.3 mb - 0.00 in0.0 mm 0.12 in3.0 mm
09:00 AM 60.8°F16.0°C 59.9°F15.5°C 97% 3.5 mph SW5.6 kmh SW 8.1 mph13.0 kmh 29.50 in999.0 mb - 0.00 in0.0 mm 0.12 in3.0 mm
10:00 AM 61.9°F16.6°C 60.7°F15.9°C 96% 4.6 mph SW7.4 kmh SW 4.6 mph7.4 kmh 29.51 in999.3 mb - 0.01 in0.3 mm 0.13 in3.3 mm
11:00 AM 63.9°F17.7°C 61.8°F16.6°C 93% 3.5 mph WSW5.6 kmh WSW 4.6 mph7.4 kmh 29.53 in1000.0 mb - 0.02 in0.5 mm 0.14 in3.6 mm
12:00 PM 62.7°F17.1°C 60.3°F15.7°C 92% 2.3 mph W3.7 kmh W 3.5 mph5.6 kmh 29.54 in1000.3 mb - 0.00 in0.0 mm 0.14 in3.6 mm
01:00 PM 65.9°F18.8°C 61.9°F16.6°C 87% 3.5 mph W5.6 kmh W 5.8 mph9.3 kmh 29.54 in1000.3 mb - 0.00 in0.0 mm 0.14 in3.6 mm
02:00 PM 67.2°F19.6°C 60.4°F15.8°C 79% 4.6 mph W7.4 kmh W 4.6 mph7.4 kmh 29.55 in1000.7 mb - 0.00 in0.0 mm 0.14 in3.6 mm
03:00 PM 65.4°F18.6°C 58.0°F14.4°C 77% 5.8 mph WSW9.3 kmh WSW 10.4 mph16.7 kmh 29.56 in1001.0 mb - 0.00 in0.0 mm 0.14 in3.6 mm
04:00 PM 64.7°F18.2°C 58.7°F14.8°C 81% 5.8 mph WSW9.3 kmh WSW 10.4 mph16.7 kmh 29.58 in1001.7 mb - 0.00 in0.0 mm 0.14 in3.6 mm
05:00 PM 63.5°F17.5°C 57.6°F14.2°C 81% 3.5 mph WNW5.6 kmh WNW 9.2 mph14.8 kmh 29.59 in1002.0 mb - 0.00 in0.0 mm 0.14 in3.6 mm
06:00 PM 62.3°F16.8°C 57.1°F13.9°C 83% 1.2 mph W1.9 kmh W 1.2 mph1.9 kmh 29.61 in1002.7 mb - 0.00 in0.0 mm 0.14 in3.6 mm
07:00 PM 60.2°F15.7°C 57.0°F13.9°C 89% Calm Calm 1.2 mph1.9 kmh 29.62 in1003.0 mb - 0.00 in0.0 mm 0.14 in3.6 mm
08:00 PM 59.2°F15.1°C 56.6°F13.7°C 91% 2.3 mph SW3.7 kmh SW 3.5 mph5.6 kmh 29.62 in1003.0 mb - 0.00 in0.0 mm 0.14 in3.6 mm
09:00 PM 58.9°F14.9°C 56.6°F13.7°C 92% 1.2 mph S1.9 kmh S 2.3 mph3.7 kmh 29.64 in1003.7 mb - 0.00 in0.0 mm 0.14 in3.6 mm
10:00 PM 59.1°F15.1°C 57.1°F13.9°C 93% 3.5 mph SSE5.6 kmh SSE 6.9 mph11.1 kmh 29.63 in1003.4 mb - 0.00 in0.0 mm 0.14 in3.6 mm
11:00 PM 59.1°F15.1°C 57.4°F14.1°C 94% 4.6 mph SSE7.4 kmh SSE 9.2 mph14.8 kmh 29.62 in1003.0 mb - 0.00 in0.0 mm 0.16 in4.1 mm